sensor_id;sensor_type;location;lat;lon;timestamp;pressure;altitude;pressure_sealevel;temperature;humidity
58534;BME280;44109;52.398;7.024;2023-03-01T00:01:44;102971.81;;;-3.88;100.00
58534;BME280;44109;52.398;7.024;2023-03-01T00:04:12;102968.34;;;-3.95;100.00
58534;BME280;44109;52.398;7.024;2023-03-01T00:06:40;102955.47;;;-4.06;100.00
58534;BME280;44109;52.398;7.024;2023-03-01T00:09:12;102946.59;;;-4.20;100.00
58534;BME280;44109;52.398;7.024;2023-03-01T00:11:41;102800.66;;;-5.04;100.00
58534;BME280;44109;52.398;7.024;2023-03-01T00:14:08;102949.00;;;-4.05;100.00
58534;BME280;44109;52.398;7.024;2023-03-01T00:16:38;102949.28;;;-4.13;100.00
58534;BME280;44109;52.398;7.024;2023-03-01T00:19:10;102950.81;;;-4.24;100.00
58534;BME280;44109;52.398;7.024;2023-03-01T00:21:40;102950.81;;;-4.24;100.00
58534;BME280;44109;52.398;7.024;2023-03-01T00:24:09;102947.97;;;-4.36;100.00
58534;BME280;44109;52.398;7.024;2023-03-01T00:26:37;102950.75;;;-4.49;100.00
58534;BME280;44109;52.398;7.024;2023-03-01T00:29:07;102950.56;;;-4.54;100.00
58534;BME280;44109;52.398;7.024;2023-03-01T00:31:34;102949.81;;;-4.36;100.00
58534;BME280;44109;52.398;7.024;2023-03-01T00:34:04;102943.16;;;-4.34;100.00
58534;BME280;44109;52.398;7.024;2023-03-01T00:36:34;102946.09;;;-4.35;100.00
58534;BME280;44109;52.398;7.024;2023-03-01T00:39:05;102935.13;;;-4.53;100.00
58534;BME280;44109;52.398;7.024;2023-03-01T00:41:36;102952.06;;;-4.65;100.00
58534;BME280;44109;52.398;7.024;2023-03-01T00:44:07;102957.63;;;-4.53;100.00
58534;BME280;44109;52.398;7.024;2023-03-01T00:46:35;102955.53;;;-4.51;100.00
58534;BME280;44109;52.398;7.024;2023-03-01T00:49:03;102948.03;;;-4.49;100.00
58534;BME280;44109;52.398;7.024;2023-03-01T00:51:31;102947.22;;;-4.56;100.00
58534;BME280;44109;52.398;7.024;2023-03-01T00:54:00;102952.47;;;-4.61;100.00
58534;BME280;44109;52.398;7.024;2023-03-01T00:56:30;102952.47;;;-4.61;100.00
58534;BME280;44109;52.398;7.024;2023-03-01T00:58:58;102945.38;;;-4.62;100.00
58534;BME280;44109;52.398;7.024;2023-03-01T01:01:28;102946.28;;;-4.75;100.00
58534;BME280;44109;52.398;7.024;2023-03-01T01:03:59;102948.38;;;-4.83;100.00
58534;BME280;44109;52.398;7.024;2023-03-01T01:06:31;102926.13;;;-4.92;100.00
58534;BME280;44109;52.398;7.024;2023-03-01T01:09:02;102954.16;;;-4.73;100.00
58534;BME280;44109;52.398;7.024;2023-03-01T01:11:30;102939.63;;;-4.79;100.00
58534;BME280;44109;52.398;7.024;2023-03-01T01:13:59;102946.53;;;-4.90;100.00
58534;BME280;44109;52.398;7.024;2023-03-01T01:16:29;102939.28;;;-5.02;100.00
58534;BME280;44109;52.398;7.024;2023-03-01T01:18:57;102933.88;;;-5.09;100.00
58534;BME280;44109;52.398;7.024;2023-03-01T01:21:25;102932.00;;;-5.02;100.00
58534;BME280;44109;52.398;7.024;2023-03-01T01:23:54;102835.41;;;-5.53;100.00
58534;BME280;44109;52.398;7.024;2023-03-01T01:26:24;102914.94;;;-5.09;100.00
58534;BME280;44109;52.398;7.024;2023-03-01T01:28:54;102916.00;;;-5.10;100.00
58534;BME280;44109;52.398;7.024;2023-03-01T01:31:23;102917.25;;;-5.19;100.00
58534;BME280;44109;52.398;7.024;2023-03-01T01:33:53;102925.19;;;-5.24;100.00
58534;BME280;44109;52.398;7.024;2023-03-01T01:36:22;102907.13;;;-5.44;100.00
58534;BME280;44109;52.398;7.024;2023-03-01T01:38:50;102891.16;;;-5.58;100.00
58534;BME280;44109;52.398;7.024;2023-03-01T01:41:19;102908.56;;;-5.41;100.00
58534;BME280;44109;52.398;7.024;2023-03-01T01:43:49;102911.06;;;-5.26;100.00
58534;BME280;44109;52.398;7.024;2023-03-01T01:46:46;102915.16;;;-5.04;100.00
58534;BME280;44109;52.398;7.024;2023-03-01T01:49:23;102909.94;;;-4.99;100.00
58534;BME280;44109;52.398;7.024;2023-03-01T01:52:00;102905.16;;;-5.10;100.00
58534;BME280;44109;52.398;7.024;2023-03-01T01:54:40;102897.91;;;-5.23;100.00
58534;BME280;44109;52.398;7.024;2023-03-01T01:57:14;102894.41;;;-5.30;100.00
58534;BME280;44109;52.398;7.024;2023-03-01T01:59:49;102903.16;;;-5.34;100.00
58534;BME280;44109;52.398;7.024;2023-03-01T02:02:20;102896.09;;;-5.36;100.00
58534;BME280;44109;52.398;7.024;2023-03-01T02:04:52;102890.25;;;-5.32;100.00
58534;BME280;44109;52.398;7.024;2023-03-01T02:07:26;102890.66;;;-5.29;100.00
58534;BME280;44109;52.398;7.024;2023-03-01T02:09:54;102904.00;;;-5.34;100.00
58534;BME280;44109;52.398;7.024;2023-03-01T02:12:24;102894.84;;;-5.40;100.00
58534;BME280;44109;52.398;7.024;2023-03-01T02:14:53;102891.75;;;-5.50;100.00
58534;BME280;44109;52.398;7.024;2023-03-01T02:17:21;102887.81;;;-5.54;100.00
58534;BME280;44109;52.398;7.024;2023-03-01T02:20:01;102886.56;;;-5.58;100.00
58534;BME280;44109;52.398;7.024;2023-03-01T02:22:37;102872.00;;;-5.57;100.00
58534;BME280;44109;52.398;7.024;2023-03-01T02:30:49;102868.03;;;-5.48;100.00
58534;BME280;44109;52.398;7.024;2023-03-01T02:33:37;102873.66;;;-5.49;100.00
58534;BME280;44109;52.398;7.024;2023-03-01T02:36:08;102877.41;;;-5.57;100.00
58534;BME280;44109;52.398;7.024;2023-03-01T02:38:39;102875.34;;;-5.62;100.00
58534;BME280;44109;52.398;7.024;2023-03-01T02:41:08;102874.09;;;-5.72;100.00
58534;BME280;44109;52.398;7.024;2023-03-01T02:43:41;102875.38;;;-5.75;100.00
58534;BME280;44109;52.398;7.024;2023-03-01T02:46:15;102867.25;;;-5.81;100.00
58534;BME280;44109;52.398;7.024;2023-03-01T02:48:46;102859.56;;;-5.84;100.00
58534;BME280;44109;52.398;7.024;2023-03-01T02:51:26;102863.72;;;-5.75;100.00
58534;BME280;44109;52.398;7.024;2023-03-01T02:54:16;102854.97;;;-5.71;100.00
58534;BME280;44109;52.398;7.024;2023-03-01T02:56:52;102850.81;;;-5.67;100.00
58534;BME280;44109;52.398;7.024;2023-03-01T02:59:24;102851.25;;;-5.76;100.00
58534;BME280;44109;52.398;7.024;2023-03-01T03:01:56;102849.16;;;-5.74;100.00
58534;BME280;44109;52.398;7.024;2023-03-01T03:04:24;102862.69;;;-5.68;100.00
58534;BME280;44109;52.398;7.024;2023-03-01T03:06:51;102851.44;;;-5.71;100.00
58534;BME280;44109;52.398;7.024;2023-03-01T03:09:19;102853.97;;;-5.76;100.00
58534;BME280;44109;52.398;7.024;2023-03-01T03:11:47;102854.38;;;-5.79;100.00
58534;BME280;44109;52.398;7.024;2023-03-01T03:14:16;102856.88;;;-5.84;100.00
58534;BME280;44109;52.398;7.024;2023-03-01T03:16:48;102865.59;;;-5.89;100.00
58534;BME280;44109;52.398;7.024;2023-03-01T03:19:17;102853.81;;;-5.95;100.00
58534;BME280;44109;52.398;7.024;2023-03-01T03:21:46;102860.38;;;-5.77;100.00
58534;BME280;44109;52.398;7.024;2023-03-01T03:24:15;102855.38;;;-5.74;100.00
58534;BME280;44109;52.398;7.024;2023-03-01T03:26:44;102860.81;;;-5.80;100.00
58534;BME280;44109;52.398;7.024;2023-03-01T03:29:11;102857.91;;;-5.79;100.00
58534;BME280;44109;52.398;7.024;2023-03-01T03:31:40;102854.13;;;-5.58;100.00
58534;BME280;44109;52.398;7.024;2023-03-01T03:34:09;102849.91;;;-5.41;100.00
58534;BME280;44109;52.398;7.024;2023-03-01T03:36:43;102851.59;;;-5.40;100.00
58534;BME280;44109;52.398;7.024;2023-03-01T03:39:11;102842.47;;;-5.52;100.00
58534;BME280;44109;52.398;7.024;2023-03-01T03:41:38;102845.38;;;-5.60;100.00
58534;BME280;44109;52.398;7.024;2023-03-01T03:44:06;102854.56;;;-5.68;100.00
58534;BME280;44109;52.398;7.024;2023-03-01T03:46:33;102856.25;;;-5.80;100.00
58534;BME280;44109;52.398;7.024;2023-03-01T03:49:01;102849.97;;;-5.74;100.00
58534;BME280;44109;52.398;7.024;2023-03-01T03:51:30;102857.06;;;-5.66;100.00
58534;BME280;44109;52.398;7.024;2023-03-01T03:53:57;102857.47;;;-5.63;100.00
58534;BME280;44109;52.398;7.024;2023-03-01T03:56:25;102853.72;;;-5.68;100.00
58534;BME280;44109;52.398;7.024;2023-03-01T03:58:53;102847.91;;;-5.78;100.00
58534;BME280;44109;52.398;7.024;2023-03-01T04:01:20;102856.03;;;-5.78;100.00
58534;BME280;44109;52.398;7.024;2023-03-01T04:03:48;102862.06;;;-5.83;100.00
58534;BME280;44109;52.398;7.024;2023-03-01T04:06:20;102848.31;;;-5.81;100.00
58534;BME280;44109;52.398;7.024;2023-03-01T04:08:49;102845.22;;;-5.78;100.00
58534;BME280;44109;52.398;7.024;2023-03-01T04:11:17;102839.81;;;-5.78;100.00
58534;BME280;44109;52.398;7.024;2023-03-01T04:13:55;102840.03;;;-5.80;100.00
58534;BME280;44109;52.398;7.024;2023-03-01T04:16:25;102832.13;;;-5.88;100.00
58534;BME280;44109;52.398;7.024;2023-03-01T04:18:52;102832.97;;;-5.88;100.00
58534;BME280;44109;52.398;7.024;2023-03-01T04:21:21;102831.28;;;-5.82;100.00
58534;BME280;44109;52.398;7.024;2023-03-01T04:23:50;102825.06;;;-5.82;100.00
58534;BME280;44109;52.398;7.024;2023-03-01T04:26:18;102810.94;;;-5.91;100.00
58534;BME280;44109;52.398;7.024;2023-03-01T04:28:47;102777.53;;;-6.10;100.00
58534;BME280;44109;52.398;7.024;2023-03-01T04:31:18;102816.75;;;-5.88;100.00
58534;BME280;44109;52.398;7.024;2023-03-01T04:33:48;102811.41;;;-5.94;100.00
58534;BME280;44109;52.398;7.024;2023-03-01T04:36:20;102793.53;;;-6.02;100.00
58534;BME280;44109;52.398;7.024;2023-03-01T04:38:50;102806.34;;;-5.91;100.00
58534;BME280;44109;52.398;7.024;2023-03-01T04:41:20;102800.94;;;-5.91;100.00
58534;BME280;44109;52.398;7.024;2023-03-01T04:43:50;102773.59;;;-6.14;100.00
58534;BME280;44109;52.398;7.024;2023-03-01T04:46:19;102806.63;;;-5.99;100.00
58534;BME280;44109;52.398;7.024;2023-03-01T04:48:48;102811.59;;;-5.96;100.00
58534;BME280;44109;52.398;7.024;2023-03-01T04:51:16;102807.44;;;-5.92;100.00
58534;BME280;44109;52.398;7.024;2023-03-01T04:53:44;102791.44;;;-6.06;100.00
58534;BME280;44109;52.398;7.024;2023-03-01T04:56:13;102802.88;;;-5.98;100.00
58534;BME280;44109;52.398;7.024;2023-03-01T04:58:42;102806.81;;;-6.00;100.00
58534;BME280;44109;52.398;7.024;2023-03-01T05:01:10;102804.34;;;-6.02;100.00
58534;BME280;44109;52.398;7.024;2023-03-01T05:03:42;102779.81;;;-6.27;100.00
58534;BME280;44109;52.398;7.024;2023-03-01T05:06:11;102802.25;;;-6.06;100.00
58534;BME280;44109;52.398;7.024;2023-03-01T05:08:40;102804.34;;;-6.02;100.00
58534;BME280;44109;52.398;7.024;2023-03-01T05:11:09;102804.13;;;-5.94;100.00
58534;BME280;44109;52.398;7.024;2023-03-01T05:13:39;102793.09;;;-5.92;100.00
58534;BME280;44109;52.398;7.024;2023-03-01T05:16:08;102793.69;;;-5.90;100.00
58534;BME280;44109;52.398;7.024;2023-03-01T05:18:37;102792.28;;;-5.99;100.00
58534;BME280;44109;52.398;7.024;2023-03-01T05:21:07;102782.94;;;-6.10;100.00
58534;BME280;44109;52.398;7.024;2023-03-01T05:23:36;102780.03;;;-6.15;100.00
58534;BME280;44109;52.398;7.024;2023-03-01T05:26:05;102769.00;;;-6.27;100.00
58534;BME280;44109;52.398;7.024;2023-03-01T05:28:33;102731.66;;;-6.50;100.00
58534;BME280;44109;52.398;7.024;2023-03-01T05:31:02;102772.97;;;-6.16;100.00
58534;BME280;44109;52.398;7.024;2023-03-01T05:33:35;102770.69;;;-6.13;100.00
58534;BME280;44109;52.398;7.024;2023-03-01T05:36:04;102769.44;;;-6.03;100.00
58534;BME280;44109;52.398;7.024;2023-03-01T05:38:33;102740.16;;;-6.33;100.00
58534;BME280;44109;52.398;7.024;2023-03-01T05:41:01;102774.03;;;-6.17;100.00
58534;BME280;44109;52.398;7.024;2023-03-01T05:43:30;102766.53;;;-6.22;100.00
58534;BME280;44109;52.398;7.024;2023-03-01T05:45:59;102765.91;;;-6.17;100.00
58534;BME280;44109;52.398;7.024;2023-03-01T05:48:29;102767.16;;;-6.13;100.00
58534;BME280;44109;52.398;7.024;2023-03-01T05:50:59;102769.00;;;-6.14;100.00
58534;BME280;44109;52.398;7.024;2023-03-01T05:53:27;102764.03;;;-6.17;100.00
58534;BME280;44109;52.398;7.024;2023-03-01T05:55:55;102763.00;;;-6.22;100.00
58534;BME280;44109;52.398;7.024;2023-03-01T05:58:23;102755.31;;;-6.12;100.00
58534;BME280;44109;52.398;7.024;2023-03-01T06:00:51;102762.97;;;-6.09;100.00
58534;BME280;44109;52.398;7.024;2023-03-01T06:03:20;102746.38;;;-6.19;100.00
58534;BME280;44109;52.398;7.024;2023-03-01T06:05:47;102764.66;;;-6.08;100.00
58534;BME280;44109;52.398;7.024;2023-03-01T06:08:15;102755.72;;;-6.15;100.00
58534;BME280;44109;52.398;7.024;2023-03-01T06:10:43;102769.88;;;-6.13;100.00
58534;BME280;44109;52.398;7.024;2023-03-01T06:13:10;102768.81;;;-6.19;100.00
58534;BME280;44109;52.398;7.024;2023-03-01T06:15:38;102774.03;;;-6.17;100.00
58534;BME280;44109;52.398;7.024;2023-03-01T06:18:05;102778.19;;;-6.21;100.00
58534;BME280;44109;52.398;7.024;2023-03-01T06:20:34;102782.13;;;-6.30;100.00
58534;BME280;44109;52.398;7.024;2023-03-01T06:23:02;102776.09;;;-6.26;100.00
58534;BME280;44109;52.398;7.024;2023-03-01T06:25:30;102776.09;;;-6.19;100.00
58534;BME280;44109;52.398;7.024;2023-03-01T06:27:58;102778.38;;;-6.16;100.00
58534;BME280;44109;52.398;7.024;2023-03-01T06:30:26;102776.50;;;-6.16;100.00
58534;BME280;44109;52.398;7.024;2023-03-01T06:32:54;102782.53;;;-6.07;100.00
58534;BME280;44109;52.398;7.024;2023-03-01T06:35:27;102782.53;;;-6.07;100.00
58534;BME280;44109;52.398;7.024;2023-03-01T06:38:00;102783.13;;;-5.98;100.00
58534;BME280;44109;52.398;7.024;2023-03-01T06:40:29;102786.59;;;-5.91;100.00
58534;BME280;44109;52.398;7.024;2023-03-01T06:42:58;102784.09;;;-5.86;100.00
58534;BME280;44109;52.398;7.024;2023-03-01T06:45:27;102790.56;;;-5.80;100.00
58534;BME280;44109;52.398;7.024;2023-03-01T06:48:01;102789.28;;;-5.71;100.00
58534;BME280;44109;52.398;7.024;2023-03-01T06:50:31;102787.81;;;-5.67;100.00
58534;BME280;44109;52.398;7.024;2023-03-01T06:53:00;102789.66;;;-5.61;100.00
58534;BME280;44109;52.398;7.024;2023-03-01T06:55:28;102790.03;;;-5.51;100.00
58534;BME280;44109;52.398;7.024;2023-03-01T06:57:56;102789.59;;;-5.41;100.00
58534;BME280;44109;52.398;7.024;2023-03-01T07:00:26;102798.31;;;-5.39;100.00
58534;BME280;44109;52.398;7.024;2023-03-01T07:02:55;102772.75;;;-5.50;100.00
58534;BME280;44109;52.398;7.024;2023-03-01T07:05:25;102760.09;;;-5.56;100.00
58534;BME280;44109;52.398;7.024;2023-03-01T07:07:53;102740.59;;;-5.58;100.00
58534;BME280;44109;52.398;7.024;2023-03-01T07:10:23;102793.44;;;-5.17;100.00
58534;BME280;44109;52.398;7.024;2023-03-01T07:12:54;102799.44;;;-5.08;100.00
58534;BME280;44109;52.398;7.024;2023-03-01T07:15:23;102808.13;;;-5.00;100.00
58534;BME280;44109;52.398;7.024;2023-03-01T07:17:51;102807.47;;;-4.95;100.00
58534;BME280;44109;52.398;7.024;2023-03-01T07:20:19;102814.28;;;-4.86;100.00
58534;BME280;44109;52.398;7.024;2023-03-01T07:22:50;102806.72;;;-4.71;100.00
58534;BME280;44109;52.398;7.024;2023-03-01T07:25:18;102776.03;;;-4.65;100.00
58534;BME280;44109;52.398;7.024;2023-03-01T07:27:50;102791.31;;;-4.20;100.00
58534;BME280;44109;52.398;7.024;2023-03-01T07:30:18;102800.72;;;-3.98;100.00
58534;BME280;44109;52.398;7.024;2023-03-01T07:32:47;102797.25;;;-3.87;100.00
58534;BME280;44109;52.398;7.024;2023-03-01T07:35:14;102766.03;;;-3.89;100.00
58534;BME280;44109;52.398;7.024;2023-03-01T07:37:42;102761.50;;;-3.77;100.00
58534;BME280;44109;52.398;7.024;2023-03-01T07:40:11;102791.69;;;-3.37;100.00
58534;BME280;44109;52.398;7.024;2023-03-01T07:42:39;102769.19;;;-3.07;100.00
58534;BME280;44109;52.398;7.024;2023-03-01T07:45:09;102793.13;;;-2.44;100.00
58534;BME280;44109;52.398;7.024;2023-03-01T07:47:39;102700.16;;;-2.22;100.00
58534;BME280;44109;52.398;7.024;2023-03-01T07:50:09;102787.19;;;-1.35;100.00
58534;BME280;44109;52.398;7.024;2023-03-01T07:52:37;102794.72;;;-0.68;100.00
58534;BME280;44109;52.398;7.024;2023-03-01T07:55:05;102793.13;;;-0.36;100.00
58534;BME280;44109;52.398;7.024;2023-03-01T07:57:36;102789.53;;;0.14;100.00
58534;BME280;44109;52.398;7.024;2023-03-01T08:00:05;102785.91;;;1.18;100.00
58534;BME280;44109;52.398;7.024;2023-03-01T08:02:35;102796.22;;;1.70;100.00
58534;BME280;44109;52.398;7.024;2023-03-01T08:05:03;102799.38;;;2.32;100.00
58534;BME280;44109;52.398;7.024;2023-03-01T08:07:31;102788.94;;;2.18;100.00
58534;BME280;44109;52.398;7.024;2023-03-01T08:09:58;102794.28;;;3.23;100.00
58534;BME280;44109;52.398;7.024;2023-03-01T08:12:26;102795.97;;;3.50;100.00
58534;BME280;44109;52.398;7.024;2023-03-01T08:14:54;102788.22;;;3.16;100.00
58534;BME280;44109;52.398;7.024;2023-03-01T08:17:23;102784.16;;;4.05;100.00
58534;BME280;44109;52.398;7.024;2023-03-01T08:19:52;102793.69;;;4.33;100.00
58534;BME280;44109;52.398;7.024;2023-03-01T08:22:20;102793.50;;;4.84;100.00
58534;BME280;44109;52.398;7.024;2023-03-01T08:24:47;102788.38;;;5.22;100.00
58534;BME280;44109;52.398;7.024;2023-03-01T08:27:15;102796.31;;;5.63;100.00
58534;BME280;44109;52.398;7.024;2023-03-01T08:29:43;102786.84;;;5.79;100.00
58534;BME280;44109;52.398;7.024;2023-03-01T08:32:11;102785.47;;;6.11;100.00
58534;BME280;44109;52.398;7.024;2023-03-01T08:34:38;102782.28;;;6.28;100.00
58534;BME280;44109;52.398;7.024;2023-03-01T08:37:07;102772.03;;;6.76;100.00
58534;BME280;44109;52.398;7.024;2023-03-01T08:39:35;102773.25;;;6.89;100.00
58534;BME280;44109;52.398;7.024;2023-03-01T08:42:03;102772.44;;;7.07;100.00
58534;BME280;44109;52.398;7.024;2023-03-01T08:44:31;102768.56;;;7.46;100.00
58534;BME280;44109;52.398;7.024;2023-03-01T08:46:59;102774.56;;;7.67;100.00
58534;BME280;44109;52.398;7.024;2023-03-01T08:49:28;102772.69;;;7.81;100.00
58534;BME280;44109;52.398;7.024;2023-03-01T08:51:55;102779.22;;;7.85;100.00
58534;BME280;44109;52.398;7.024;2023-03-01T08:54:24;102768.34;;;7.43;100.00
58534;BME280;44109;52.398;7.024;2023-03-01T08:56:52;102776.72;;;8.03;100.00
58534;BME280;44109;52.398;7.024;2023-03-01T08:59:20;102771.38;;;7.93;100.00
58534;BME280;44109;52.398;7.024;2023-03-01T09:01:47;102772.81;;;8.04;100.00
58534;BME280;44109;52.398;7.024;2023-03-01T09:04:15;102771.00;;;8.13;100.00
58534;BME280;44109;52.398;7.024;2023-03-01T09:06:43;102778.41;;;8.31;100.00
58534;BME280;44109;52.398;7.024;2023-03-01T09:09:14;102768.31;;;8.08;100.00
58534;BME280;44109;52.398;7.024;2023-03-01T09:11:45;102768.38;;;7.89;90.98
58534;BME280;44109;52.398;7.024;2023-03-01T09:14:16;102746.47;;;7.79;87.27
58534;BME280;44109;52.398;7.024;2023-03-01T09:16:43;102757.00;;;8.23;97.95
58534;BME280;44109;52.398;7.024;2023-03-01T09:19:11;102763.63;;;8.08;85.76
58534;BME280;44109;52.398;7.024;2023-03-01T09:21:39;102754.66;;;7.51;78.30
58534;BME280;44109;52.398;7.024;2023-03-01T09:24:12;102755.31;;;7.62;88.37
58534;BME280;44109;52.398;7.024;2023-03-01T09:26:43;102756.00;;;7.86;87.12
58534;BME280;44109;52.398;7.024;2023-03-01T09:29:12;102748.97;;;8.08;95.70
58534;BME280;44109;52.398;7.024;2023-03-01T09:31:40;102750.56;;;8.42;97.75
58534;BME280;44109;52.398;7.024;2023-03-01T09:34:08;102722.78;;;8.19;86.61
58534;BME280;44109;52.398;7.024;2023-03-01T09:36:36;102741.81;;;8.34;96.10
58534;BME280;44109;52.398;7.024;2023-03-01T09:39:05;102738.31;;;8.01;86.92
58534;BME280;44109;52.398;7.024;2023-03-01T09:41:46;102744.34;;;7.89;79.70
58534;BME280;44109;52.398;7.024;2023-03-01T09:44:30;102727.59;;;8.00;79.47
58534;BME280;44109;52.398;7.024;2023-03-01T09:47:03;102736.38;;;8.02;80.38
58534;BME280;44109;52.398;7.024;2023-03-01T09:49:33;102734.03;;;7.62;64.98
58534;BME280;44109;52.398;7.024;2023-03-01T09:52:18;102719.28;;;8.00;78.37
58534;BME280;44109;52.398;7.024;2023-03-01T09:54:54;102730.41;;;7.95;65.16
58534;BME280;44109;52.398;7.024;2023-03-01T09:57:30;102731.94;;;7.73;66.41
58534;BME280;44109;52.398;7.024;2023-03-01T10:00:20;102722.22;;;7.89;77.40
58534;BME280;44109;52.398;7.024;2023-03-01T10:03:02;102717.53;;;8.04;79.62
58534;BME280;44109;52.398;7.024;2023-03-01T10:05:47;102706.06;;;7.97;75.63
58534;BME280;44109;52.398;7.024;2023-03-01T10:08:33;102704.94;;;7.98;64.85
58534;BME280;44109;52.398;7.024;2023-03-01T10:11:19;102706.66;;;7.80;60.68
58534;BME280;44109;52.398;7.024;2023-03-01T10:13:55;102700.47;;;7.55;67.59
58534;BME280;44109;52.398;7.024;2023-03-01T10:16:35;102705.19;;;7.55;59.93
58534;BME280;44109;52.398;7.024;2023-03-01T10:19:14;102689.06;;;7.76;62.63
58534;BME280;44109;52.398;7.024;2023-03-01T10:21:49;102697.44;;;7.71;59.54
58534;BME280;44109;52.398;7.024;2023-03-01T10:24:19;102701.56;;;7.87;57.46
58534;BME280;44109;52.398;7.024;2023-03-01T10:26:54;102690.50;;;7.73;59.78
58534;BME280;44109;52.398;7.024;2023-03-01T10:29:26;102673.41;;;7.38;58.51
58534;BME280;44109;52.398;7.024;2023-03-01T10:32:03;102701.22;;;7.75;60.82
58534;BME280;44109;52.398;7.024;2023-03-01T10:34:34;102693.97;;;7.79;57.20
58534;BME280;44109;52.398;7.024;2023-03-01T10:37:10;102693.50;;;7.58;54.69
58534;BME280;44109;52.398;7.024;2023-03-01T10:39:55;102696.75;;;7.93;55.66
58534;BME280;44109;52.398;7.024;2023-03-01T10:42:32;102702.72;;;8.00;56.23
58534;BME280;44109;52.398;7.024;2023-03-01T10:45:24;102670.38;;;8.14;55.82
58534;BME280;44109;52.398;7.024;2023-03-01T10:48:06;102694.81;;;8.34;53.48
58534;BME280;44109;52.398;7.024;2023-03-01T10:50:40;102695.63;;;8.07;52.32
58534;BME280;44109;52.398;7.024;2023-03-01T10:53:25;102693.41;;;8.09;49.30
58534;BME280;44109;52.398;7.024;2023-03-01T10:56:00;102699.16;;;8.13;51.66
58534;BME280;44109;52.398;7.024;2023-03-01T10:58:31;102694.44;;;8.27;53.88
58534;BME280;44109;52.398;7.024;2023-03-01T11:01:02;102700.66;;;7.92;52.62
58534;BME280;44109;52.398;7.024;2023-03-01T11:03:33;102698.06;;;7.68;51.52
58534;BME280;44109;52.398;7.024;2023-03-01T11:06:05;102688.63;;;7.22;52.02
58534;BME280;44109;52.398;7.024;2023-03-01T11:08:48;102694.34;;;7.26;51.42
58534;BME280;44109;52.398;7.024;2023-03-01T11:11:21;102680.16;;;7.32;52.22
58534;BME280;44109;52.398;7.024;2023-03-01T11:13:55;102684.16;;;6.70;50.84
58534;BME280;44109;52.398;7.024;2023-03-01T11:16:32;102682.22;;;6.70;51.53
58534;BME280;44109;52.398;7.024;2023-03-01T11:19:15;102674.16;;;6.36;50.46
58534;BME280;44109;52.398;7.024;2023-03-01T11:21:52;102672.28;;;6.31;51.62
58534;BME280;44109;52.398;7.024;2023-03-01T11:24:31;102664.00;;;6.31;53.18
58534;BME280;44109;52.398;7.024;2023-03-01T11:27:14;102668.63;;;6.36;52.26
58534;BME280;44109;52.398;7.024;2023-03-01T11:29:48;102664.59;;;6.47;52.00
58534;BME280;44109;52.398;7.024;2023-03-01T11:32:25;102665.22;;;6.82;53.47
58534;BME280;44109;52.398;7.024;2023-03-01T11:35:01;102661.19;;;6.74;54.09
58534;BME280;44109;52.398;7.024;2023-03-01T11:37:40;102655.03;;;6.64;53.30
58534;BME280;44109;52.398;7.024;2023-03-01T11:40:17;102644.81;;;6.45;53.29
58534;BME280;44109;52.398;7.024;2023-03-01T11:43:01;102648.47;;;6.59;54.72
58534;BME280;44109;52.398;7.024;2023-03-01T11:45:48;102576.53;;;6.18;52.21
58534;BME280;44109;52.398;7.024;2023-03-01T11:48:41;102649.41;;;6.50;53.29
58534;BME280;44109;52.398;7.024;2023-03-01T11:51:23;102648.63;;;6.68;51.91
58534;BME280;44109;52.398;7.024;2023-03-01T11:54:09;102641.16;;;6.69;51.62
58534;BME280;44109;52.398;7.024;2023-03-01T11:57:00;102620.13;;;6.54;53.73
58534;BME280;44109;52.398;7.024;2023-03-01T12:03:10;102631.97;;;6.73;52.79
58534;BME280;44109;52.398;7.024;2023-03-01T12:06:19;102627.34;;;6.88;53.03
58534;BME280;44109;52.398;7.024;2023-03-01T12:09:05;102580.75;;;6.67;52.12
58534;BME280;44109;52.398;7.024;2023-03-01T12:12:07;102624.59;;;6.88;52.24
58534;BME280;44109;52.398;7.024;2023-03-01T12:15:01;102615.78;;;6.67;50.32
58534;BME280;44109;52.398;7.024;2023-03-01T12:18:03;102549.22;;;6.41;50.73
58534;BME280;44109;52.398;7.024;2023-03-01T12:20:53;102617.59;;;6.95;51.12
58534;BME280;44109;52.398;7.024;2023-03-01T12:23:54;102603.97;;;6.99;49.86
58534;BME280;44109;52.398;7.024;2023-03-01T12:26:38;102596.66;;;7.08;49.92
58534;BME280;44109;52.398;7.024;2023-03-01T12:29:24;102599.88;;;7.29;51.37
58534;BME280;44109;52.398;7.024;2023-03-01T12:32:18;102614.25;;;7.12;47.75
58534;BME280;44109;52.398;7.024;2023-03-01T12:38:22;102603.44;;;7.16;51.21
58534;BME280;44109;52.398;7.024;2023-03-01T12:41:21;102589.50;;;7.07;49.82
58534;BME280;44109;52.398;7.024;2023-03-01T12:44:15;102591.75;;;7.05;48.17
58534;BME280;44109;52.398;7.024;2023-03-01T12:47:07;102583.97;;;7.07;49.58
58534;BME280;44109;52.398;7.024;2023-03-01T12:49:51;102592.78;;;7.09;48.44
58534;BME280;44109;52.398;7.024;2023-03-01T12:52:26;102581.75;;;7.09;49.27
58534;BME280;44109;52.398;7.024;2023-03-01T12:55:08;102581.28;;;6.88;48.90
58534;BME280;44109;52.398;7.024;2023-03-01T12:57:55;102507.25;;;6.76;50.71
58534;BME280;44109;52.398;7.024;2023-03-01T13:00:35;102548.50;;;7.00;50.92
58534;BME280;44109;52.398;7.024;2023-03-01T13:03:15;102559.41;;;7.24;49.69
58534;BME280;44109;52.398;7.024;2023-03-01T13:06:00;102549.75;;;7.08;47.48
58534;BME280;44109;52.398;7.024;2023-03-01T13:08:39;102520.41;;;7.12;49.20
58534;BME280;44109;52.398;7.024;2023-03-01T13:11:16;102548.47;;;7.47;48.61
58534;BME280;44109;52.398;7.024;2023-03-01T13:13:47;102546.03;;;7.45;47.91
58534;BME280;44109;52.398;7.024;2023-03-01T13:16:39;102539.50;;;7.55;48.54
58534;BME280;44109;52.398;7.024;2023-03-01T13:19:14;102539.66;;;7.58;47.61
58534;BME280;44109;52.398;7.024;2023-03-01T13:21:44;102540.91;;;7.66;50.57
58534;BME280;44109;52.398;7.024;2023-03-01T13:24:27;102528.03;;;7.61;47.80
58534;BME280;44109;52.398;7.024;2023-03-01T13:27:18;102530.88;;;7.84;49.04
58534;BME280;44109;52.398;7.024;2023-03-01T13:29:52;102534.13;;;8.00;45.76